createdAt,value
2023-01-15T00:02:18.305Z,100024.90
2023-01-15T00:04:45.014Z,100022.91
2023-01-15T00:07:11.711Z,100021.71
2023-01-15T00:09:38.383Z,100020.30
2023-01-15T00:12:05.329Z,100021.27
2023-01-15T00:14:31.997Z,100018.08
2023-01-15T00:16:58.726Z,100019.91
2023-01-15T00:19:25.422Z,100019.70
2023-01-15T00:21:53.876Z,100014.50
2023-01-15T00:24:39.257Z,100012.27
2023-01-15T00:27:24.546Z,100018.10
2023-01-15T00:29:51.226Z,100014.27
2023-01-15T00:32:17.927Z,100011.73
2023-01-15T00:34:44.607Z,100010.52
2023-01-15T00:37:11.265Z,100011.52
2023-01-15T00:39:38.000Z,100008.55
2023-01-15T00:42:04.679Z,100005.16
2023-01-15T00:44:33.617Z,100002.98
2023-01-15T00:47:00.576Z,100001.59
2023-01-15T00:49:27.250Z,99999.32
2023-01-15T00:51:53.950Z,99996.83
2023-01-15T00:54:20.660Z,99997.44
2023-01-15T00:56:47.357Z,99995.95
2023-01-15T00:59:14.068Z,99993.62
2023-01-15T01:01:41.048Z,99994.56
2023-01-15T01:04:07.795Z,99994.11
2023-01-15T01:06:34.919Z,99993.98
2023-01-15T01:09:01.640Z,99998.61
2023-01-15T01:11:34.155Z,99995.48
2023-01-15T01:14:03.845Z,99990.82
2023-01-15T01:16:38.482Z,99992.36
2023-01-15T01:19:07.351Z,99993.23
2023-01-15T01:21:34.108Z,99989.94
2023-01-15T01:24:01.078Z,99984.83
2023-01-15T01:26:28.730Z,99984.64
2023-01-15T01:28:56.004Z,99986.91
2023-01-15T01:31:23.164Z,99985.52
2023-01-15T01:33:50.890Z,99987.39
2023-01-15T01:36:17.933Z,99985.46
2023-01-15T01:38:45.111Z,99987.52
2023-01-15T01:41:11.791Z,99981.95
2023-01-15T01:44:02.797Z,99980.56
2023-01-15T01:46:31.255Z,99982.31
2023-01-15T01:49:00.614Z,99983.52
2023-01-15T01:51:30.077Z,99988.38
2023-01-15T01:53:56.822Z,99988.77
2023-01-15T01:56:24.119Z,99985.18
2023-01-15T01:58:53.188Z,99987.08
2023-01-15T02:01:20.007Z,99989.81
2023-01-15T02:03:46.771Z,99993.06
2023-01-15T02:06:13.659Z,99997.20
2023-01-15T02:08:40.381Z,100006.88
2023-01-15T02:11:07.803Z,100002.48
2023-01-15T02:13:39.339Z,99996.18
2023-01-15T02:16:16.899Z,99997.35
2023-01-15T02:18:49.043Z,99999.52
2023-01-15T02:21:48.888Z,99998.60
2023-01-15T02:24:32.087Z,99999.33
2023-01-15T02:27:15.695Z,99993.26
2023-01-15T02:29:56.467Z,99985.02
2023-01-15T02:32:52.488Z,99988.89
2023-01-15T02:35:42.563Z,99992.53
2023-01-15T02:38:12.624Z,99989.52
2023-01-15T02:40:39.374Z,99986.58
2023-01-15T02:43:06.023Z,99985.89
2023-01-15T02:45:33.825Z,99980.05
2023-01-15T02:48:06.947Z,99975.65
2023-01-15T02:50:36.998Z,99970.20
2023-01-15T02:53:07.714Z,99967.94
2023-01-15T02:55:36.662Z,99961.51
2023-01-15T02:58:05.771Z,99960.79
2023-01-15T03:00:35.763Z,99960.54
2023-01-15T03:03:09.413Z,99964.30
2023-01-15T03:05:39.107Z,99964.42
2023-01-15T03:08:07.339Z,99968.42
2023-01-15T03:11:17.067Z,99963.99
2023-01-15T03:13:54.624Z,99967.67
2023-01-15T03:16:50.360Z,99968.98
2023-01-15T03:19:40.407Z,99965.25
2023-01-15T03:22:25.970Z,99958.77
2023-01-15T03:24:59.640Z,99953.25
2023-01-15T03:27:28.021Z,99947.24
2023-01-15T03:30:04.421Z,99948.64
2023-01-15T03:32:31.449Z,99954.45
2023-01-15T03:34:58.590Z,99952.71
2023-01-15T03:37:25.860Z,99955.30
2023-01-15T03:39:53.731Z,99951.21
2023-01-15T03:42:40.722Z,99953.16
2023-01-15T03:45:16.653Z,99952.88
2023-01-15T03:48:03.078Z,99950.48
2023-01-15T03:51:00.725Z,99946.80
2023-01-15T03:53:34.125Z,99950.02
2023-01-15T03:56:03.656Z,99951.11
2023-01-15T03:58:41.537Z,99953.46
2023-01-15T04:01:10.902Z,99948.80
2023-01-15T04:03:38.045Z,99954.81
2023-01-15T04:06:05.659Z,99953.56
2023-01-15T04:08:38.658Z,99953.54
2023-01-15T04:11:05.557Z,99952.60
2023-01-15T04:13:38.918Z,99952.08
2023-01-15T04:16:08.621Z,99950.61
2023-01-15T04:18:35.909Z,99949.16
2023-01-15T04:21:04.770Z,99949.00
2023-01-15T04:23:33.781Z,99948.27
2023-01-15T04:26:00.490Z,99951.25
2023-01-15T04:28:27.173Z,99944.55
2023-01-15T04:30:56.700Z,99938.84
2023-01-15T04:33:23.461Z,99942.59
2023-01-15T04:35:50.142Z,99944.94
2023-01-15T04:38:18.066Z,99940.77
2023-01-15T04:41:03.509Z,99942.45
2023-01-15T04:43:48.817Z,99940.22
2023-01-15T04:46:15.585Z,99942.67
2023-01-15T04:48:42.524Z,99947.47
2023-01-15T04:51:09.380Z,99940.74
2023-01-15T04:53:36.124Z,99939.64
2023-01-15T04:56:03.790Z,99936.55
2023-01-15T04:58:30.582Z,99936.52
2023-01-15T05:00:57.436Z,99936.30
2023-01-15T05:03:24.213Z,99942.06
2023-01-15T05:05:51.024Z,99942.38
2023-01-15T05:08:17.811Z,99942.17
2023-01-15T05:10:44.594Z,99942.17
2023-01-15T05:13:11.415Z,99936.98
2023-01-15T05:15:40.668Z,99932.02
2023-01-15T05:18:07.450Z,99927.40
2023-01-15T05:20:37.007Z,99934.15
2023-01-15T05:23:03.767Z,99940.71
2023-01-15T05:25:30.556Z,99935.96
2023-01-15T05:27:57.351Z,99939.05
2023-01-15T05:30:24.097Z,99941.66
2023-01-15T05:32:51.545Z,99939.14
2023-01-15T05:35:18.375Z,99938.42
2023-01-15T05:37:45.199Z,99936.23
2023-01-15T05:40:14.165Z,99937.20
2023-01-15T05:42:44.160Z,99933.86
2023-01-15T05:45:15.116Z,99935.71
2023-01-15T05:47:45.007Z,99933.77
2023-01-15T05:50:15.169Z,99936.34
2023-01-15T05:52:45.143Z,99933.52
2023-01-15T05:55:15.165Z,99936.25
2023-01-15T05:57:44.948Z,99935.51
2023-01-15T06:00:14.171Z,99934.52
2023-01-15T06:02:44.151Z,99937.52
2023-01-15T06:05:15.176Z,99939.85
2023-01-15T06:07:44.602Z,99936.70
2023-01-15T06:10:13.912Z,99930.46
2023-01-15T06:12:43.075Z,99927.29
2023-01-15T06:15:13.063Z,99922.79
2023-01-15T06:17:43.134Z,99925.21
2023-01-15T06:20:12.578Z,99926.64
2023-01-15T06:22:42.195Z,99925.05
2023-01-15T06:25:11.970Z,99927.70
2023-01-15T06:27:44.504Z,99929.42
2023-01-15T06:30:14.179Z,99929.53
2023-01-15T06:32:44.138Z,99929.54
2023-01-15T06:35:15.143Z,99925.03
2023-01-15T06:37:45.546Z,99920.36
2023-01-15T06:47:49.416Z,99927.20
2023-01-15T06:50:16.847Z,99934.64
2023-01-15T06:52:43.637Z,99928.31
2023-01-15T06:55:11.686Z,99931.76
2023-01-15T06:57:40.017Z,99930.85
2023-01-15T07:00:08.615Z,99933.65
2023-01-15T07:02:35.462Z,99926.75
2023-01-15T07:05:02.441Z,99921.31
2023-01-15T07:07:29.911Z,99930.29
2023-01-15T07:09:56.771Z,99922.79
2023-01-15T07:12:23.680Z,99926.41
2023-01-15T07:14:50.400Z,99926.50
2023-01-15T07:17:17.163Z,99930.92
2023-01-15T07:19:44.909Z,99927.55
2023-01-15T07:22:11.689Z,99928.40
2023-01-15T07:24:38.484Z,99922.66
2023-01-15T07:27:05.869Z,99928.30
2023-01-15T07:29:32.591Z,99926.80
2023-01-15T07:31:59.505Z,99932.03
2023-01-15T07:34:26.197Z,99931.89
2023-01-15T07:36:52.969Z,99939.88
2023-01-15T07:39:19.784Z,99941.88
2023-01-15T07:42:05.389Z,99933.95
2023-01-15T07:44:53.613Z,99930.75
2023-01-15T07:47:40.741Z,99931.09
2023-01-15T07:50:12.526Z,99933.91
2023-01-15T07:52:39.442Z,99937.44
2023-01-15T07:55:08.600Z,99935.65
2023-01-15T07:57:35.504Z,99932.95
2023-01-15T08:00:02.362Z,99936.02
2023-01-15T08:02:39.336Z,99934.17
2023-01-15T08:05:06.852Z,99933.77
2023-01-15T08:07:40.741Z,99936.28
2023-01-15T08:10:09.202Z,99937.42
2023-01-15T08:12:57.123Z,99939.26
2023-01-15T08:15:24.956Z,99933.34
2023-01-15T08:17:51.678Z,99932.02
2023-01-15T08:20:20.775Z,99930.08
2023-01-15T08:22:48.247Z,99924.39
2023-01-15T08:25:17.437Z,99923.54
2023-01-15T08:27:44.318Z,99920.20
2023-01-15T08:30:13.758Z,99914.66
2023-01-15T08:32:40.560Z,99911.34
2023-01-15T08:35:07.970Z,99911.51
2023-01-15T08:37:35.269Z,99916.87
2023-01-15T08:40:02.110Z,99915.77
2023-01-15T08:42:28.892Z,99911.34
2023-01-15T08:44:55.609Z,99912.76
2023-01-15T08:47:22.300Z,99913.22
2023-01-15T08:49:49.153Z,99911.59
2023-01-15T08:52:16.074Z,99902.10
2023-01-15T08:54:43.490Z,99902.31
2023-01-15T08:57:12.184Z,99898.45
2023-01-15T08:59:38.952Z,99889.16
2023-01-15T09:02:05.732Z,99887.35
2023-01-15T09:04:32.692Z,99887.09
2023-01-15T09:06:59.435Z,99881.61
2023-01-15T09:09:26.425Z,99885.27
2023-01-15T09:11:53.120Z,99883.30
2023-01-15T09:14:58.728Z,99876.89
2023-01-15T09:17:06.558Z,99872.73
2023-01-15T09:19:33.361Z,99867.11
2023-01-15T09:22:00.166Z,99870.52
2023-01-15T09:24:27.127Z,99867.42
2023-01-15T09:26:54.027Z,99870.80
2023-01-15T09:29:20.737Z,99878.43
2023-01-15T09:31:47.740Z,99877.08
2023-01-15T09:34:14.461Z,99872.58
2023-01-15T09:36:41.583Z,99872.19
2023-01-15T09:39:08.558Z,99867.84
2023-01-15T09:42:08.625Z,99862.21
2023-01-15T09:45:02.659Z,99857.88
2023-01-15T09:47:36.854Z,99846.36
2023-01-15T09:50:05.683Z,99833.41
2023-01-15T09:52:58.571Z,99826.12
2023-01-15T09:55:29.464Z,99824.35
2023-01-15T09:57:58.342Z,99816.64
2023-01-15T10:00:26.811Z,99812.44
2023-01-15T10:03:00.790Z,99809.09
2023-01-15T10:05:36.179Z,99815.98
2023-01-15T10:08:25.173Z,99821.84
2023-01-15T10:10:56.797Z,99825.86
2023-01-15T10:13:39.695Z,99819.63
2023-01-15T10:16:06.784Z,99814.70
2023-01-15T10:18:33.622Z,99811.61
2023-01-15T10:21:19.314Z,99806.20
2023-01-15T10:24:19.545Z,99798.84
2023-01-15T10:26:56.724Z,99792.38
2023-01-15T10:29:45.684Z,99791.08
2023-01-15T10:32:42.780Z,99791.48
2023-01-15T10:35:19.854Z,99786.76
2023-01-15T10:37:49.451Z,99775.19
2023-01-15T10:40:33.063Z,99769.46
2023-01-15T10:43:18.657Z,99759.23
2023-01-15T10:46:00.149Z,99746.85
2023-01-15T10:48:47.629Z,99745.93
2023-01-15T10:51:23.426Z,99748.70
2023-01-15T10:54:03.681Z,99745.67
2023-01-15T10:56:54.121Z,99740.13
2023-01-15T10:59:30.884Z,99746.32
2023-01-15T11:01:57.836Z,99735.56
2023-01-15T20:44:45.253Z,99414.01
2023-01-15T20:47:31.029Z,99417.53
2023-01-15T20:49:58.282Z,99428.92
2023-01-15T20:52:24.987Z,99424.60
2023-01-15T20:54:51.674Z,99420.38
2023-01-15T20:57:18.709Z,99425.55
2023-01-15T20:59:45.485Z,99419.96
2023-01-15T21:02:12.505Z,99421.36
2023-01-15T21:04:39.182Z,99427.60
2023-01-15T21:07:05.853Z,99429.52
2023-01-15T21:09:32.650Z,99429.58
2023-01-15T21:11:59.350Z,99438.61
2023-01-15T21:14:26.048Z,99431.15
2023-01-15T21:16:53.688Z,99433.38
2023-01-15T21:19:21.244Z,99433.71
2023-01-15T21:21:47.977Z,99436.77
2023-01-15T21:24:14.664Z,99439.77
2023-01-15T21:26:41.363Z,99439.94
2023-01-15T21:29:08.199Z,99450.83
2023-01-15T21:31:35.016Z,99439.97
2023-01-15T21:34:01.878Z,99440.23
2023-01-15T21:36:28.575Z,99441.55
2023-01-15T21:38:55.374Z,99431.66
2023-01-15T21:41:45.492Z,99434.88
2023-01-15T21:44:33.354Z,99420.93
2023-01-15T21:47:01.897Z,99432.38
2023-01-15T21:49:29.298Z,99416.88
2023-01-15T21:51:56.072Z,99426.44
2023-01-15T21:54:23.092Z,99417.85
2023-01-15T21:56:49.960Z,99413.57
2023-01-15T21:59:16.768Z,99404.44
2023-01-15T22:01:43.656Z,99405.98
2023-01-15T22:04:10.481Z,99407.53
2023-01-15T22:06:38.038Z,99402.31
2023-01-15T22:09:05.090Z,99405.65
2023-01-15T22:11:43.906Z,99403.67
2023-01-15T22:14:23.819Z,99395.05
2023-01-15T22:16:53.700Z,99398.67
2023-01-15T22:19:21.353Z,99396.16
2023-01-15T22:21:49.194Z,99399.17
2023-01-15T22:24:16.294Z,99403.30
2023-01-15T22:26:43.848Z,99387.07
2023-01-15T22:29:11.241Z,99382.74
2023-01-15T22:31:40.603Z,99390.93
2023-01-15T22:34:08.020Z,99385.39
2023-01-15T22:36:35.337Z,99383.34
2023-01-15T22:39:02.116Z,99375.75
2023-01-15T22:41:47.717Z,99360.89
2023-01-15T22:44:14.451Z,99368.16
2023-01-15T22:46:41.210Z,99361.42
2023-01-15T22:49:08.230Z,99364.43
2023-01-15T22:51:34.908Z,99371.58
2023-01-15T22:54:01.613Z,99374.26
2023-01-15T22:56:28.402Z,99366.30
2023-01-15T22:58:55.627Z,99364.94
2023-01-15T23:01:23.423Z,99368.48
2023-01-15T23:03:50.353Z,99375.50
2023-01-15T23:06:20.557Z,99361.21
2023-01-15T23:08:47.247Z,99353.60
2023-01-15T23:11:15.419Z,99353.85
2023-01-15T23:13:42.373Z,99344.29
2023-01-15T23:16:09.322Z,99356.16
2023-01-15T23:18:36.203Z,99340.07
2023-01-15T23:21:14.037Z,99341.23
2023-01-15T23:23:40.755Z,99349.02
2023-01-15T23:26:09.507Z,99348.04
2023-01-15T23:28:36.191Z,99333.77
2023-01-15T23:31:03.187Z,99336.11
2023-01-15T23:33:29.890Z,99338.45
2023-01-15T23:35:56.669Z,99330.30
2023-01-15T23:38:23.400Z,99341.02
2023-01-15T23:40:50.180Z,99336.90
2023-01-15T23:43:35.755Z,99338.10
2023-01-15T23:46:32.861Z,99326.46
2023-01-15T23:49:03.266Z,99328.85
2023-01-15T23:51:30.293Z,99322.71
2023-01-15T23:53:57.449Z,99310.92
2023-01-15T23:56:24.280Z,99317.23
2023-01-15T23:58:51.064Z,99309.46
